Portada
METAR-TAF:

METAR-TAF

Aeroports :

Aeroport de Jiddah Rei Abdulaziz

Jiddah, Aràbia Saudita

latitud: 21-42N, longitud: 039-11E, altitud: 15 m

Observació

L'informe es va fer fa 16 minuts, a les 21:00 UTC
Vent 10 kt del Nord
Temperatura 30°C
Humitat 59%
Pressió 1009 hPa
Visibilitat 10 km o més
Escasses núvols a una alçada de 4000 ft

METAR: OEJN 262100Z 35010KT 9999 FEW040 30/21 Q1009 NOSIG

Hora: 00:16 (21:16 UTC)

Pronòstic

L'informe es va fer fa 10 hores i 16 minuts, a les 11:00 UTC
Pronòstic vàlid del 26 a les 12 UTC al 27 a les 18 UTC
Vent 18 kt del Nord/Nord-Oest
Visibilitat 10 km o més
sense núvols per sota de 1500 mi sense presència de cumulonimbus.
Evolucionant progressivament
l' 26 a les 18 UTC al 26 a les 20 UTC
Vent 6 kt del Nord/Nord-Est

TAF: OEJN 261100Z 2612/2718 33018KT CAVOK BECMG 2618/2620 02006KT

Observacions i pronòstics meteorològics de més de 4000 aeroports (METAR i TAF).

Les estacions disponibles són els punts grocs i vermells al mapa.

Posi el ratolí al punt desitjat per veure el nom de l'estació.

Feu clic per veure les observacions i els pronòstics meteorològics.

Per canviar el mapa: feu clic els botons verds amb una creu de color negre per apropar; al botó verd amb un guió per allunyar la imatge; o en les fletxes verdes per a mapes adjacents.


METAR-TAF: